Terminal Aerodrome Forecast
Issued by NWS Los Angeles, CA

Current Version | Previous Version | Text Only | Print | Product List | Glossary On
Versions: 1 2 3 4 5 6 7 8 9 10 11 12 13 14 15 16 17 18 19 20 21 22 23 24 25 26
583
FTUS46 KLOX 281740
TAFSMX
TAF
KSMX 281740Z 2818/2918 23005KT P6SM SKC
     FM282000 30012KT P6SM SKC
     FM290300 31007KT P6SM BKN006
     FM290600 VRB03KT 4SM BR OVC004
     FM290800 28002KT 2SM BR OVC002
     FM291100 VRB03KT 1 1/2SM BR OVC003
     FM291530 VRB03KT 3SM BR OVC004
     FM291700 VRB03KT 5SM BR BKN007=

USA.gov is the U.S. government's official web portal to all federal, state and local government web resources and services.